Huvudsida
METAR-TAF:

METAR-TAF

Flygplatser :

Bushehr Civ / Afb

Bushehr, Iran

latitud: 28-59N, longitud: 050-50E, höjd: 19 m

Aktuellt väderrapport

Denna rapport gjordes för 21 minuter sedan, klockan 14:30 UTC
Vind 6 kt från syd/sydväst
Temperatur 37°C
Fuktighet 40%
Tryck 999 hPa
Sikt 10 km eller mer
Inga moln under 1 500 m eller inga cumulonimbus

METAR: OIBB 261430Z 21006KT CAVOK 37/21 Q0998 A2949

Tid: 19:21 (14:51 UTC)


TAF: saknas

Aktuella väderrapporter och prognoser från 4000 flygplatser (METAR- och TAF-rapporter).

De tillgängliga stationerna syns som gula och röda prickar på kartan.

För musen över prickarna för att se namnen på stationerna.

Klicka sedan för att få väderrapporter och prognoser.

För att ändra kartan: Klicka på de gröna knapparna med ett svart kors på för att zooma in; den gröna knappen med ett streck på för att zooma ut; eller på de gröna pilarna för angränsande kartor.


METAR-TAF: